createdAt,value
2019-01-19T00:01:46.679Z,10.97
2019-01-19T00:04:43.035Z,9.80
2019-01-19T00:07:21.719Z,10.27
2019-01-19T00:10:09.524Z,9.90
2019-01-19T00:13:16.809Z,11.97
2019-01-19T00:15:58.598Z,11.90
2019-01-19T00:18:40.303Z,10.80
2019-01-19T00:21:29.348Z,10.27
2019-01-19T00:24:01.899Z,10.80
2019-01-19T00:26:49.987Z,10.00
2019-01-19T00:29:22.541Z,11.30
2019-01-19T00:31:55.079Z,12.40
2019-01-19T00:34:42.932Z,11.27
2019-01-19T00:37:15.404Z,10.60
2019-01-19T00:39:50.851Z,11.40
2019-01-19T00:42:26.226Z,11.93
2019-01-19T00:44:58.709Z,11.77
2019-01-19T00:47:49.046Z,11.63
2019-01-19T00:50:45.487Z,12.30
2019-01-19T00:53:27.132Z,12.53
2019-01-19T00:56:11.507Z,12.00
2019-01-19T00:58:44.126Z,12.63
2019-01-19T01:01:43.855Z,13.93
2019-01-19T01:04:35.667Z,12.60
2019-01-19T01:07:19.770Z,13.53
2019-01-19T01:10:10.217Z,13.63
2019-01-19T01:12:57.352Z,14.47
2019-01-19T01:15:57.298Z,13.97
2019-01-19T01:18:35.325Z,14.20
2019-01-19T01:21:23.056Z,15.03
2019-01-19T01:24:04.425Z,14.70
2019-01-19T01:26:43.118Z,14.97
2019-01-19T01:29:15.586Z,15.00
2019-01-19T01:31:50.754Z,15.40
2019-01-19T01:34:45.651Z,16.33
2019-01-19T01:37:20.998Z,19.97
2019-01-19T01:40:04.879Z,17.47
2019-01-19T01:42:55.225Z,17.97
2019-01-19T01:45:40.107Z,19.30
2019-01-19T01:48:15.576Z,18.13
2019-01-19T01:50:48.135Z,19.10
2019-01-19T01:53:43.411Z,18.93
2019-01-19T01:56:13.328Z,17.53
2019-01-19T01:59:03.583Z,18.57
2019-01-19T02:01:51.446Z,18.13
2019-01-19T02:04:45.346Z,20.37
2019-01-19T02:07:33.218Z,19.17
2019-01-19T02:10:18.202Z,20.63
2019-01-19T02:12:53.727Z,20.30
2019-01-19T02:15:35.003Z,19.80
2019-01-19T02:18:16.458Z,20.93
2019-01-19T02:21:00.919Z,20.07
2019-01-19T02:23:48.560Z,20.93
2019-01-19T02:26:32.852Z,22.30
2019-01-19T02:29:18.398Z,23.30
2019-01-19T02:31:56.630Z,22.33
2019-01-19T02:34:34.977Z,22.60
2019-01-19T02:37:22.830Z,23.40
2019-01-19T02:39:57.759Z,22.93
2019-01-19T02:42:48.433Z,23.60
2019-01-19T02:45:39.331Z,26.47
2019-01-19T02:48:45.203Z,26.60
2019-01-19T02:51:23.518Z,26.40
2019-01-19T02:54:05.177Z,27.83
2019-01-19T02:56:40.578Z,27.93
2019-01-19T02:59:32.395Z,25.57
2019-01-19T03:02:10.859Z,29.47
2019-01-19T03:04:49.235Z,26.97
2019-01-19T03:07:24.583Z,33.53
2019-01-19T03:10:19.831Z,27.40
2019-01-19T03:13:19.528Z,27.00
2019-01-19T03:16:03.948Z,27.37
2019-01-19T03:18:48.423Z,28.00
2019-01-19T03:21:29.735Z,28.27
2019-01-19T03:24:07.749Z,30.10
2019-01-19T03:26:43.335Z,29.33
2019-01-19T03:29:21.920Z,29.80
2019-01-19T03:32:09.580Z,32.50
2019-01-19T03:34:57.058Z,31.27
2019-01-19T03:37:47.527Z,32.73
2019-01-19T03:40:32.062Z,31.93
2019-01-19T03:43:07.459Z,32.13
2019-01-19T03:45:43.060Z,32.93
2019-01-19T03:48:21.531Z,32.47
2019-01-19T03:50:54.139Z,32.47
2019-01-19T03:53:35.990Z,33.53
2019-01-19T03:56:29.957Z,34.60
2019-01-19T03:59:05.571Z,32.60
2019-01-19T04:01:44.020Z,31.93
2019-01-19T04:04:22.611Z,30.70
2019-01-19T04:07:00.695Z,32.10
2019-01-19T04:09:49.915Z,29.87
2019-01-19T04:12:34.216Z,31.67
2019-01-19T04:15:09.887Z,29.83
2019-01-19T04:17:54.135Z,29.20
2019-01-19T04:20:36.122Z,29.90
2019-01-19T04:23:06.324Z,28.63
2019-01-19T04:25:40.603Z,29.50
2019-01-19T04:28:10.438Z,29.73
2019-01-19T04:30:39.825Z,27.90
2019-01-19T04:33:09.260Z,28.60
2019-01-19T04:35:38.706Z,26.50
2019-01-19T04:38:08.354Z,26.27
2019-01-19T04:40:37.851Z,26.37
2019-01-19T04:43:07.450Z,26.00
2019-01-19T04:45:37.007Z,27.17
2019-01-19T04:48:07.701Z,26.13
2019-01-19T04:50:38.562Z,26.10
2019-01-19T04:53:08.405Z,26.13
2019-01-19T04:55:38.422Z,25.57
2019-01-19T04:58:07.849Z,24.43
2019-01-19T05:00:37.243Z,25.57
2019-01-19T05:03:06.683Z,24.87
2019-01-19T05:05:36.325Z,23.97
2019-01-19T05:08:06.958Z,24.73
2019-01-19T05:10:36.351Z,24.53
2019-01-19T05:13:05.970Z,25.73
2019-01-19T05:15:35.512Z,26.70
2019-01-19T05:18:05.824Z,26.83
2019-01-19T05:20:35.214Z,26.27
2019-01-19T05:23:04.754Z,26.30
2019-01-19T05:25:36.027Z,26.23
2019-01-19T05:28:05.621Z,29.17
2019-01-19T05:30:35.035Z,27.17
2019-01-19T05:33:04.524Z,29.27
2019-01-19T05:35:34.061Z,28.67
2019-01-19T05:38:03.576Z,29.93
2019-01-19T05:40:33.121Z,30.77
2019-01-19T05:43:02.479Z,34.37
2019-01-19T05:45:31.876Z,39.77
2019-01-19T05:48:01.371Z,39.87
2019-01-19T05:50:30.768Z,37.87
2019-01-19T05:53:00.442Z,37.27
2019-01-19T05:55:29.968Z,33.77
2019-01-19T05:57:59.322Z,32.40
2019-01-19T06:00:30.413Z,34.30
2019-01-19T06:02:59.868Z,33.80
2019-01-19T06:05:29.335Z,33.87
2019-01-19T06:07:58.862Z,33.03
2019-01-19T06:10:28.338Z,33.30
2019-01-19T06:13:17.078Z,35.60
2019-01-19T06:15:46.641Z,33.87
2019-01-19T06:18:16.338Z,35.23
2019-01-19T06:20:45.730Z,35.43
2019-01-19T06:23:15.233Z,35.53
2019-01-19T06:25:44.968Z,32.50
2019-01-19T06:28:14.503Z,31.20
2019-01-19T06:30:43.981Z,30.80
2019-01-19T06:33:13.458Z,30.73
2019-01-19T06:35:42.927Z,30.27
2019-01-19T06:38:13.100Z,31.80
2019-01-19T06:40:42.562Z,29.63
2019-01-19T06:43:11.963Z,32.40
2019-01-19T06:45:41.362Z,30.67
2019-01-19T06:48:10.758Z,31.97
2019-01-19T06:50:40.202Z,29.83
2019-01-19T06:53:09.672Z,30.30
2019-01-19T06:55:39.102Z,30.70
2019-01-19T06:58:08.573Z,30.13
2019-01-19T07:00:38.432Z,30.40
2019-01-19T07:03:07.965Z,30.30
2019-01-19T07:05:37.361Z,35.10
2019-01-19T07:08:06.936Z,31.90
2019-01-19T07:10:36.293Z,30.27
2019-01-19T07:13:05.694Z,30.40
2019-01-19T07:15:35.202Z,29.37
2019-01-19T07:18:07.913Z,32.03
2019-01-19T07:20:37.354Z,29.93
2019-01-19T07:23:06.909Z,31.33
2019-01-19T07:25:55.751Z,30.27
2019-01-19T07:28:25.375Z,29.67
2019-01-19T07:30:54.734Z,29.63
2019-01-19T07:33:24.297Z,29.77
2019-01-19T07:35:53.859Z,28.07
2019-01-19T07:38:24.861Z,27.20
2019-01-19T07:40:55.011Z,28.50
2019-01-19T07:43:24.964Z,29.13
2019-01-19T07:45:54.576Z,27.63
2019-01-19T07:48:24.196Z,28.47
2019-01-19T07:51:05.424Z,29.00
2019-01-19T07:53:34.880Z,28.53
2019-01-19T07:56:04.515Z,29.23
2019-01-19T07:58:35.567Z,29.10
2019-01-19T08:01:05.110Z,27.40
2019-01-19T08:03:34.610Z,27.17
2019-01-19T08:06:04.233Z,28.97
2019-01-19T08:11:44.098Z,27.10
2019-01-19T08:14:13.471Z,27.17
2019-01-19T08:16:42.940Z,27.33
2019-01-19T08:19:12.517Z,28.07
2019-01-19T08:21:42.123Z,28.70
2019-01-19T08:24:11.667Z,28.47
2019-01-19T08:26:41.352Z,28.50
2019-01-19T08:29:10.801Z,25.67
2019-01-19T08:31:40.412Z,25.77
2019-01-19T08:34:10.058Z,24.70
2019-01-19T08:36:39.462Z,24.90
2019-01-19T08:39:22.097Z,25.60
2019-01-19T08:41:54.621Z,24.23
2019-01-19T08:44:24.158Z,21.97
2019-01-19T08:47:06.979Z,21.87
2019-01-19T08:49:36.514Z,21.00
2019-01-19T08:52:06.061Z,19.03
2019-01-19T08:54:35.779Z,19.80
2019-01-19T08:57:05.259Z,19.17
2019-01-19T08:59:34.717Z,18.57
2019-01-19T09:02:06.168Z,18.97
2019-01-19T09:04:35.631Z,19.17
2019-01-19T09:07:05.173Z,18.30
2019-01-19T09:09:34.649Z,16.67
2019-01-19T09:12:04.339Z,16.97
2019-01-19T09:14:33.911Z,16.73
2019-01-19T09:17:03.302Z,15.50
2019-01-19T09:19:32.945Z,15.77
2019-01-19T09:22:02.504Z,16.90
2019-01-19T09:24:32.084Z,16.77
2019-01-19T09:27:01.556Z,15.17
2019-01-19T09:29:30.941Z,13.60
2019-01-19T09:32:00.408Z,13.13
2019-01-19T09:34:29.940Z,14.17
2019-01-19T09:36:59.775Z,13.70
2019-01-19T09:39:29.460Z,13.53
2019-01-19T09:41:58.919Z,14.80
2019-01-19T09:44:28.529Z,13.93
2019-01-19T09:46:57.987Z,13.87
2019-01-19T09:49:28.976Z,14.13
2019-01-19T09:51:58.481Z,12.87
2019-01-19T09:54:27.943Z,13.77
2019-01-19T09:56:57.341Z,14.03
2019-01-19T09:59:26.752Z,13.67
2019-01-19T10:01:57.743Z,13.77
2019-01-19T10:04:27.206Z,13.03
2019-01-19T10:06:56.692Z,14.07
2019-01-19T10:09:28.011Z,13.03
2019-01-19T10:11:57.472Z,12.97
2019-01-19T10:14:26.864Z,13.47
2019-01-19T10:16:56.462Z,13.60
2019-01-19T10:19:26.099Z,14.90
2019-01-19T10:21:55.496Z,14.40
2019-01-19T10:24:24.902Z,13.53
2019-01-19T10:26:54.366Z,12.53
2019-01-19T10:29:24.204Z,15.93
2019-01-19T10:31:53.742Z,14.87
2019-01-19T10:34:23.377Z,14.30
2019-01-19T10:36:54.767Z,14.03
2019-01-19T10:39:24.296Z,43.93
2019-01-19T10:41:53.683Z,39.10
2019-01-19T10:44:23.157Z,31.73
2019-01-19T10:46:54.313Z,31.97
2019-01-19T10:49:24.554Z,36.97
2019-01-19T10:51:59.347Z,33.90
2019-01-19T10:54:25.472Z,45.60
2019-01-19T10:56:54.919Z,32.63
2019-01-19T10:59:24.322Z,41.90
2019-01-19T11:01:53.702Z,34.77
2019-01-19T11:04:23.100Z,41.30
2019-01-19T11:06:52.685Z,44.33
2019-01-19T11:09:22.327Z,26.70
2019-01-19T11:11:51.845Z,25.77
2019-01-19T11:14:21.410Z,23.83
2019-01-19T11:16:51.057Z,26.73
2019-01-19T11:19:20.475Z,22.10
2019-01-19T11:21:49.948Z,25.63
2019-01-19T11:24:19.407Z,28.47
2019-01-19T11:26:48.811Z,24.53
2019-01-19T11:29:19.867Z,27.80
2019-01-19T11:31:49.404Z,35.50
2019-01-19T11:34:18.859Z,21.30
2019-01-19T11:36:48.244Z,23.20
2019-01-19T11:39:17.780Z,22.80
2019-01-19T11:41:47.236Z,32.00
2019-01-19T11:44:16.699Z,27.53
2019-01-19T11:46:46.103Z,25.80
2019-01-19T11:49:15.711Z,24.57
2019-01-19T11:51:45.244Z,21.87
2019-01-19T11:54:15.125Z,23.60
2019-01-19T11:56:44.722Z,24.37
2019-01-19T11:59:14.175Z,22.27
2019-01-19T12:01:43.627Z,21.80
2019-01-19T12:04:13.087Z,21.60
2019-01-19T12:06:42.547Z,20.80
2019-01-19T12:09:12.165Z,23.67
2019-01-19T12:11:41.623Z,20.93
2019-01-19T12:14:12.680Z,21.40
2019-01-19T12:16:42.126Z,23.57
2019-01-19T12:19:11.523Z,21.73
2019-01-19T12:21:40.978Z,20.20
2019-01-19T12:24:10.442Z,21.77
2019-01-19T12:26:40.073Z,28.77
2019-01-19T12:29:09.481Z,21.30
2019-01-19T12:31:38.992Z,25.50
2019-01-19T12:34:08.443Z,21.83
2019-01-19T12:36:39.729Z,19.00
2019-01-19T12:39:09.409Z,18.33
2019-01-19T12:41:38.941Z,17.47
2019-01-19T12:44:08.632Z,17.60
2019-01-19T12:46:38.152Z,19.73
2019-01-19T12:49:07.679Z,16.47
2019-01-19T12:51:37.151Z,18.50
2019-01-19T12:54:06.722Z,19.43
2019-01-19T12:56:36.429Z,18.23
2019-01-19T12:59:05.803Z,16.57
2019-01-19T13:01:35.287Z,16.97
2019-01-19T13:04:05.205Z,18.47
2019-01-19T13:06:38.751Z,17.60
2019-01-19T13:09:12.579Z,17.90
2019-01-19T13:11:59.071Z,16.53
2019-01-19T13:14:29.771Z,18.10
2019-01-19T13:17:18.971Z,21.90
2019-01-19T13:19:59.897Z,18.77
2019-01-19T13:22:52.188Z,18.77
2019-01-19T13:25:43.069Z,17.93
2019-01-19T13:28:24.478Z,17.90
2019-01-19T13:31:11.722Z,17.23
2019-01-19T13:33:59.204Z,18.60
2019-01-19T13:36:40.491Z,16.87
2019-01-19T13:39:22.502Z,17.73
2019-01-19T13:42:17.822Z,24.63
2019-01-19T13:44:50.378Z,21.30
2019-01-19T13:47:55.081Z,18.30
2019-01-19T13:50:33.224Z,18.13
2019-01-19T13:53:22.359Z,16.73
2019-01-19T13:56:14.315Z,15.50
2019-01-19T13:58:58.795Z,15.47
2019-01-19T14:01:53.469Z,16.50
2019-01-19T14:04:25.937Z,14.60
2019-01-19T14:07:04.532Z,18.83
2019-01-19T14:09:39.546Z,15.97
2019-01-19T14:12:36.383Z,17.00
2019-01-19T14:15:11.509Z,15.70
2019-01-19T14:17:46.825Z,16.37
2019-01-19T14:20:45.113Z,13.27
2019-01-19T14:23:27.267Z,12.17
2019-01-19T14:25:59.735Z,14.50
2019-01-19T14:28:51.680Z,12.20
2019-01-19T14:31:38.679Z,13.17
2019-01-19T14:34:14.787Z,12.60
2019-01-19T14:36:50.077Z,14.33
2019-01-19T14:39:40.593Z,14.87
2019-01-19T14:42:13.132Z,13.63
2019-01-19T14:45:14.335Z,15.17
2019-01-19T14:47:46.885Z,13.37
2019-01-19T14:50:28.443Z,14.40
2019-01-19T14:53:03.681Z,16.13
2019-01-19T14:55:54.300Z,14.60
2019-01-19T14:58:35.752Z,15.73
2019-01-19T15:01:13.784Z,19.93
2019-01-19T15:03:46.264Z,14.47
2019-01-19T15:06:30.632Z,18.70
2019-01-19T15:09:22.934Z,38.27
2019-01-19T15:12:04.489Z,14.90
2019-01-19T15:14:52.075Z,20.13
2019-01-19T15:17:25.290Z,23.20
2019-01-19T15:20:12.897Z,17.60
2019-01-19T15:23:12.732Z,16.77
2019-01-19T15:25:45.496Z,16.63
2019-01-19T15:28:38.002Z,18.60
2019-01-19T15:31:12.159Z,16.40
2019-01-19T15:33:53.516Z,16.83
2019-01-19T15:36:49.677Z,21.87
2019-01-19T15:39:33.524Z,21.37
2019-01-19T15:42:15.314Z,20.80
2019-01-19T15:44:50.472Z,21.30
2019-01-19T15:47:25.886Z,23.33
2019-01-19T15:50:16.286Z,22.03
2019-01-19T15:53:05.071Z,22.87
2019-01-19T15:55:56.299Z,23.43
2019-01-19T15:58:34.614Z,22.13
2019-01-19T16:01:25.155Z,23.60
2019-01-19T16:04:14.027Z,21.07
2019-01-19T16:07:01.679Z,21.47
2019-01-19T16:10:02.603Z,21.23
2019-01-19T16:12:46.822Z,19.80
2019-01-19T16:15:27.992Z,20.37
2019-01-19T16:18:02.074Z,20.43
2019-01-19T16:20:46.522Z,19.77
2019-01-19T16:23:30.999Z,18.93
2019-01-19T16:26:25.729Z,20.77
2019-01-19T16:29:03.795Z,19.47
2019-01-19T16:31:52.518Z,20.63
2019-01-19T16:34:33.559Z,21.33
2019-01-19T16:37:14.840Z,21.87
2019-01-19T16:40:03.646Z,21.23
2019-01-19T16:42:44.635Z,20.43
2019-01-19T16:45:33.411Z,19.87
2019-01-19T16:48:11.662Z,20.63
2019-01-19T16:50:44.168Z,21.83
2019-01-19T16:53:33.276Z,23.70
2019-01-19T16:56:08.305Z,22.77
2019-01-19T16:59:01.660Z,23.67
2019-01-19T17:01:50.968Z,24.97
2019-01-19T17:04:41.405Z,23.77
2019-01-19T17:07:28.843Z,22.40
2019-01-19T17:10:10.239Z,21.60
2019-01-19T17:12:45.395Z,23.13
2019-01-19T17:15:29.775Z,20.37
2019-01-19T17:18:14.170Z,22.00
2019-01-19T17:21:13.295Z,25.67
2019-01-19T17:23:57.377Z,21.47
2019-01-19T17:27:09.989Z,21.47
2019-01-19T17:30:16.265Z,19.03
2019-01-19T17:32:57.743Z,17.67
2019-01-19T17:35:45.015Z,20.33
2019-01-19T17:38:17.625Z,18.10
2019-01-19T17:41:02.254Z,17.43
2019-01-19T17:43:46.802Z,17.37
2019-01-19T17:46:19.278Z,21.30
2019-01-19T17:49:09.886Z,17.77
2019-01-19T17:52:03.831Z,20.27
2019-01-19T17:55:02.179Z,17.43
2019-01-19T17:57:40.538Z,17.13
2019-01-19T18:00:21.943Z,16.47
2019-01-19T18:02:56.083Z,15.50
2019-01-19T18:05:32.837Z,15.43
2019-01-19T18:08:20.039Z,16.10
2019-01-19T18:10:58.591Z,14.63
2019-01-19T18:13:39.911Z,14.20
2019-01-19T18:16:14.926Z,14.77
2019-01-19T18:18:59.127Z,14.77
2019-01-19T18:21:48.348Z,52.83
2019-01-19T18:24:26.065Z,23.17
2019-01-19T18:27:09.951Z,16.63
2019-01-19T18:29:54.307Z,17.17
2019-01-19T18:32:32.403Z,17.07
2019-01-19T18:35:39.218Z,17.27
2019-01-19T18:38:23.362Z,16.77
2019-01-19T18:41:12.066Z,16.40
2019-01-19T18:43:50.308Z,18.57
2019-01-19T18:46:39.357Z,16.33
2019-01-19T18:49:28.136Z,17.43
2019-01-19T18:52:16.731Z,17.20
2019-01-19T18:54:59.682Z,17.77
2019-01-19T18:57:40.807Z,16.30
2019-01-19T19:00:31.010Z,15.67
2019-01-19T19:03:31.819Z,17.70
2019-01-19T19:06:18.767Z,16.33
2019-01-19T19:09:09.030Z,17.77
2019-01-19T19:12:14.364Z,18.93
2019-01-19T19:15:08.353Z,18.10
2019-01-19T19:17:46.051Z,17.90
2019-01-19T19:20:21.348Z,20.43
2019-01-19T19:23:13.493Z,18.70
2019-01-19T19:26:13.362Z,16.93
2019-01-19T19:28:45.811Z,17.43
2019-01-19T19:31:30.124Z,13.77
2019-01-19T19:34:02.699Z,14.83
2019-01-19T19:36:53.624Z,13.77
2019-01-19T19:39:38.131Z,12.87
2019-01-19T19:42:35.066Z,15.33
2019-01-19T19:45:13.528Z,14.47
2019-01-19T19:48:01.181Z,13.37
2019-01-19T19:50:45.608Z,15.33
2019-01-19T19:53:15.196Z,16.03
2019-01-19T19:55:43.561Z,15.23
2019-01-19T19:58:14.612Z,17.10
2019-01-19T20:00:44.221Z,16.50
2019-01-19T20:03:13.816Z,13.33
2019-01-19T20:05:43.328Z,11.87
2019-01-19T20:08:12.864Z,11.10
2019-01-19T20:10:42.298Z,9.57
2019-01-19T20:13:11.720Z,10.10
2019-01-19T20:16:01.502Z,9.83
2019-01-19T20:18:30.990Z,10.50
2019-01-19T20:21:00.460Z,9.70
2019-01-19T20:23:29.869Z,9.80
2019-01-19T20:25:59.340Z,9.33
2019-01-19T20:28:28.814Z,8.50
2019-01-19T20:30:58.276Z,8.67
2019-01-19T20:33:27.758Z,8.43
2019-01-19T20:35:57.270Z,7.63
2019-01-19T20:38:29.786Z,8.03
2019-01-19T20:40:59.454Z,8.23
2019-01-19T20:43:28.918Z,7.77
2019-01-19T20:45:58.494Z,8.63
2019-01-19T20:48:28.205Z,8.20
2019-01-19T20:50:57.669Z,9.13
2019-01-19T20:53:27.134Z,7.63
2019-01-19T20:55:56.515Z,8.00
2019-01-19T20:58:25.908Z,8.50
2019-01-19T21:00:57.389Z,8.47
2019-01-19T21:03:26.923Z,8.70
2019-01-19T21:05:56.375Z,8.47
2019-01-19T21:08:25.824Z,8.57
2019-01-19T21:10:55.207Z,8.10
2019-01-19T21:13:24.907Z,8.80
2019-01-19T21:15:54.278Z,8.63
2019-01-19T21:18:23.680Z,8.70
2019-01-19T21:20:53.067Z,9.17
2019-01-19T21:23:35.922Z,9.90
2019-01-19T21:26:05.391Z,9.47
2019-01-19T21:28:34.967Z,9.50
2019-01-19T21:31:04.356Z,8.40
2019-01-19T21:33:35.390Z,9.37
2019-01-19T21:36:05.473Z,9.17
2019-01-19T21:38:34.871Z,8.83
2019-01-19T21:41:04.324Z,8.27
2019-01-19T21:43:33.819Z,9.10
2019-01-19T21:46:03.447Z,8.47
2019-01-19T21:48:33.074Z,8.50
2019-01-19T21:51:02.519Z,8.93
2019-01-19T21:53:31.929Z,9.50
2019-01-19T21:56:01.360Z,11.97
2019-01-19T21:58:32.124Z,10.67
2019-01-19T22:01:01.590Z,11.70
2019-01-19T22:03:31.340Z,12.77
2019-01-19T22:06:00.771Z,11.03
2019-01-19T22:08:30.161Z,10.37
2019-01-19T22:10:59.582Z,9.30
2019-01-19T22:13:29.031Z,9.30
2019-01-19T22:15:58.534Z,9.03
2019-01-19T22:18:27.994Z,8.83
2019-01-19T22:20:57.486Z,8.77
2019-01-19T22:23:26.875Z,8.77
2019-01-19T22:25:56.336Z,9.60
2019-01-19T22:28:25.806Z,8.67
2019-01-19T22:30:55.167Z,10.00
2019-01-19T22:33:24.999Z,10.20
2019-01-19T22:35:54.350Z,9.80
2019-01-19T22:38:23.743Z,10.57
2019-01-19T22:40:53.760Z,10.13
2019-01-19T22:43:26.259Z,8.70
2019-01-19T22:45:55.733Z,9.37
2019-01-19T22:48:25.278Z,9.37
2019-01-19T22:50:54.675Z,10.27
2019-01-19T22:53:24.359Z,8.93
2019-01-19T22:55:54.006Z,9.70
2019-01-19T22:58:23.463Z,10.23
2019-01-19T23:01:03.488Z,10.30
2019-01-19T23:03:33.748Z,10.40
2019-01-19T23:06:03.258Z,9.77
2019-01-19T23:08:32.793Z,10.20
2019-01-19T23:11:02.444Z,10.10
2019-01-19T23:13:33.438Z,9.93
2019-01-19T23:16:03.131Z,10.33
2019-01-19T23:18:32.729Z,9.83
2019-01-19T23:21:02.267Z,9.40
2019-01-19T23:23:31.627Z,9.73
2019-01-19T23:26:02.458Z,10.37
2019-01-19T23:28:31.950Z,9.80
2019-01-19T23:31:01.372Z,9.87
2019-01-19T23:33:30.759Z,10.33
2019-01-19T23:36:00.338Z,9.23
2019-01-19T23:38:29.893Z,9.70
2019-01-19T23:40:59.322Z,9.67
2019-01-19T23:43:28.973Z,10.03
2019-01-19T23:45:58.332Z,11.10
2019-01-19T23:48:27.724Z,9.73
2019-01-19T23:50:57.160Z,9.30
2019-01-19T23:53:26.614Z,9.40
2019-01-19T23:55:56.042Z,9.00
2019-01-19T23:58:25.446Z,10.90
